sensor_id;sensor_type;location;lat;lon;timestamp;P1;durP1;ratioP1;P2;durP2;ratioP2
11962;SDS011;62678;52.130;5.584;2024-02-26T00:00:17;7.63;;;6.45;;
11962;SDS011;62678;52.130;5.584;2024-02-26T00:02:45;7.05;;;6.40;;
11962;SDS011;62678;52.130;5.584;2024-02-26T00:05:12;6.82;;;5.95;;
11962;SDS011;62678;52.130;5.584;2024-02-26T00:07:41;7.13;;;6.15;;
11962;SDS011;62678;52.130;5.584;2024-02-26T00:10:09;7.35;;;6.43;;
11962;SDS011;62678;52.130;5.584;2024-02-26T00:12:36;8.73;;;6.47;;
11962;SDS011;62678;52.130;5.584;2024-02-26T00:15:04;8.40;;;6.97;;
11962;SDS011;62678;52.130;5.584;2024-02-26T00:17:31;7.85;;;6.82;;
11962;SDS011;62678;52.130;5.584;2024-02-26T00:19:58;7.75;;;6.97;;
11962;SDS011;62678;52.130;5.584;2024-02-26T00:22:26;8.23;;;7.43;;
11962;SDS011;62678;52.130;5.584;2024-02-26T00:24:54;8.30;;;7.30;;
11962;SDS011;62678;52.130;5.584;2024-02-26T00:27:21;8.05;;;7.25;;
11962;SDS011;62678;52.130;5.584;2024-02-26T00:29:49;9.40;;;7.53;;
11962;SDS011;62678;52.130;5.584;2024-02-26T00:32:16;8.50;;;7.60;;
11962;SDS011;62678;52.130;5.584;2024-02-26T00:34:43;8.85;;;7.95;;
11962;SDS011;62678;52.130;5.584;2024-02-26T00:37:10;8.30;;;7.50;;
11962;SDS011;62678;52.130;5.584;2024-02-26T00:39:37;10.55;;;8.60;;
11962;SDS011;62678;52.130;5.584;2024-02-26T00:42:06;11.18;;;8.00;;
11962;SDS011;62678;52.130;5.584;2024-02-26T00:44:33;9.02;;;8.13;;
11962;SDS011;62678;52.130;5.584;2024-02-26T00:47:00;9.20;;;8.25;;
11962;SDS011;62678;52.130;5.584;2024-02-26T00:49:27;9.82;;;8.82;;
11962;SDS011;62678;52.130;5.584;2024-02-26T00:51:54;9.32;;;8.38;;
11962;SDS011;62678;52.130;5.584;2024-02-26T00:54:21;10.65;;;9.10;;
11962;SDS011;62678;52.130;5.584;2024-02-26T00:56:48;11.40;;;9.82;;
11962;SDS011;62678;52.130;5.584;2024-02-26T00:59:17;10.90;;;9.73;;
11962;SDS011;62678;52.130;5.584;2024-02-26T01:01:44;11.45;;;9.70;;
11962;SDS011;62678;52.130;5.584;2024-02-26T01:04:11;10.70;;;9.15;;
11962;SDS011;62678;52.130;5.584;2024-02-26T01:06:38;14.13;;;9.38;;
11962;SDS011;62678;52.130;5.584;2024-02-26T01:09:05;11.48;;;9.65;;
11962;SDS011;62678;52.130;5.584;2024-02-26T01:11:33;10.63;;;9.63;;
11962;SDS011;62678;52.130;5.584;2024-02-26T01:14:00;10.75;;;9.65;;
11962;SDS011;62678;52.130;5.584;2024-02-26T01:16:30;10.52;;;9.52;;
11962;SDS011;62678;52.130;5.584;2024-02-26T01:18:57;11.27;;;10.07;;
11962;SDS011;62678;52.130;5.584;2024-02-26T01:21:24;12.30;;;9.98;;
11962;SDS011;62678;52.130;5.584;2024-02-26T01:23:54;11.13;;;10.02;;
11962;SDS011;62678;52.130;5.584;2024-02-26T01:26:21;11.60;;;10.40;;
11962;SDS011;62678;52.130;5.584;2024-02-26T01:28:48;11.15;;;10.05;;
11962;SDS011;62678;52.130;5.584;2024-02-26T01:31:15;11.15;;;9.38;;
11962;SDS011;62678;52.130;5.584;2024-02-26T01:33:43;10.90;;;9.80;;
11962;SDS011;62678;52.130;5.584;2024-02-26T01:36:10;11.18;;;9.50;;
11962;SDS011;62678;52.130;5.584;2024-02-26T01:38:38;11.38;;;9.77;;
11962;SDS011;62678;52.130;5.584;2024-02-26T01:41:05;13.23;;;10.20;;
11962;SDS011;62678;52.130;5.584;2024-02-26T01:43:32;11.57;;;10.05;;
11962;SDS011;62678;52.130;5.584;2024-02-26T01:45:59;12.80;;;10.68;;
11962;SDS011;62678;52.130;5.584;2024-02-26T01:48:26;12.88;;;10.13;;
11962;SDS011;62678;52.130;5.584;2024-02-26T01:50:55;12.50;;;9.55;;
11962;SDS011;62678;52.130;5.584;2024-02-26T01:53:22;11.43;;;10.02;;
11962;SDS011;62678;52.130;5.584;2024-02-26T01:55:49;11.48;;;9.50;;
11962;SDS011;62678;52.130;5.584;2024-02-26T01:58:16;16.83;;;10.55;;
11962;SDS011;62678;52.130;5.584;2024-02-26T02:00:43;10.88;;;9.77;;
11962;SDS011;62678;52.130;5.584;2024-02-26T02:03:10;12.52;;;10.20;;
11962;SDS011;62678;52.130;5.584;2024-02-26T02:05:38;11.52;;;10.32;;
11962;SDS011;62678;52.130;5.584;2024-02-26T02:08:08;11.10;;;9.98;;
11962;SDS011;62678;52.130;5.584;2024-02-26T02:10:36;11.88;;;9.90;;
11962;SDS011;62678;52.130;5.584;2024-02-26T02:13:03;12.43;;;9.60;;
11962;SDS011;62678;52.130;5.584;2024-02-26T02:15:30;12.55;;;9.70;;
11962;SDS011;62678;52.130;5.584;2024-02-26T02:17:57;11.48;;;9.70;;
11962;SDS011;62678;52.130;5.584;2024-02-26T02:20:26;14.07;;;9.43;;
11962;SDS011;62678;52.130;5.584;2024-02-26T02:22:58;11.30;;;9.50;;
11962;SDS011;62678;52.130;5.584;2024-02-26T02:25:25;10.23;;;9.02;;
11962;SDS011;62678;52.130;5.584;2024-02-26T02:27:53;12.30;;;9.30;;
11962;SDS011;62678;52.130;5.584;2024-02-26T02:30:20;10.77;;;9.50;;
11962;SDS011;62678;52.130;5.584;2024-02-26T02:32:47;11.05;;;8.95;;
11962;SDS011;62678;52.130;5.584;2024-02-26T02:35:15;11.00;;;9.10;;
11962;SDS011;62678;52.130;5.584;2024-02-26T02:37:43;10.30;;;9.30;;
11962;SDS011;62678;52.130;5.584;2024-02-26T02:40:10;10.05;;;8.82;;
11962;SDS011;62678;52.130;5.584;2024-02-26T02:42:37;10.60;;;9.10;;
11962;SDS011;62678;52.130;5.584;2024-02-26T02:45:05;11.93;;;9.25;;
11962;SDS011;62678;52.130;5.584;2024-02-26T02:47:35;11.20;;;9.27;;
11962;SDS011;62678;52.130;5.584;2024-02-26T02:50:02;11.85;;;9.50;;
11962;SDS011;62678;52.130;5.584;2024-02-26T02:52:30;13.38;;;9.65;;
11962;SDS011;62678;52.130;5.584;2024-02-26T02:54:58;10.98;;;9.48;;
11962;SDS011;62678;52.130;5.584;2024-02-26T02:57:26;13.05;;;10.20;;
11962;SDS011;62678;52.130;5.584;2024-02-26T02:59:53;11.23;;;9.18;;
11962;SDS011;62678;52.130;5.584;2024-02-26T03:02:20;12.43;;;9.68;;
11962;SDS011;62678;52.130;5.584;2024-02-26T03:04:49;14.13;;;9.15;;
11962;SDS011;62678;52.130;5.584;2024-02-26T03:07:17;11.90;;;9.68;;
11962;SDS011;62678;52.130;5.584;2024-02-26T03:09:44;11.35;;;9.48;;
11962;SDS011;62678;52.130;5.584;2024-02-26T03:12:12;11.63;;;9.05;;
11962;SDS011;62678;52.130;5.584;2024-02-26T03:14:39;10.80;;;9.48;;
11962;SDS011;62678;52.130;5.584;2024-02-26T03:17:06;11.02;;;9.43;;
11962;SDS011;62678;52.130;5.584;2024-02-26T03:19:33;12.50;;;9.70;;
11962;SDS011;62678;52.130;5.584;2024-02-26T03:22:01;12.48;;;9.68;;
11962;SDS011;62678;52.130;5.584;2024-02-26T03:24:28;11.88;;;9.45;;
11962;SDS011;62678;52.130;5.584;2024-02-26T03:26:55;11.00;;;9.50;;
11962;SDS011;62678;52.130;5.584;2024-02-26T03:29:24;11.15;;;9.27;;
11962;SDS011;62678;52.130;5.584;2024-02-26T03:31:51;11.18;;;9.88;;
11962;SDS011;62678;52.130;5.584;2024-02-26T03:34:18;11.13;;;9.60;;
11962;SDS011;62678;52.130;5.584;2024-02-26T03:36:45;11.60;;;9.77;;
11962;SDS011;62678;52.130;5.584;2024-02-26T03:39:12;11.02;;;9.85;;
11962;SDS011;62678;52.130;5.584;2024-02-26T03:41:39;14.63;;;10.82;;
11962;SDS011;62678;52.130;5.584;2024-02-26T03:44:06;13.30;;;11.23;;
11962;SDS011;62678;52.130;5.584;2024-02-26T03:46:35;11.52;;;10.32;;
11962;SDS011;62678;52.130;5.584;2024-02-26T03:49:02;13.82;;;11.57;;
11962;SDS011;62678;52.130;5.584;2024-02-26T03:51:29;16.55;;;11.48;;
11962;SDS011;62678;52.130;5.584;2024-02-26T03:53:57;15.60;;;11.82;;
11962;SDS011;62678;52.130;5.584;2024-02-26T03:56:24;14.18;;;11.40;;
11962;SDS011;62678;52.130;5.584;2024-02-26T03:58:51;14.95;;;11.38;;
11962;SDS011;62678;52.130;5.584;2024-02-26T04:01:18;16.05;;;11.30;;
11962;SDS011;62678;52.130;5.584;2024-02-26T04:03:46;14.88;;;11.32;;
11962;SDS011;62678;52.130;5.584;2024-02-26T04:06:13;14.68;;;11.95;;
11962;SDS011;62678;52.130;5.584;2024-02-26T04:08:43;15.73;;;10.85;;
11962;SDS011;62678;52.130;5.584;2024-02-26T04:11:10;14.57;;;11.45;;
11962;SDS011;62678;52.130;5.584;2024-02-26T04:13:37;13.20;;;11.15;;
11962;SDS011;62678;52.130;5.584;2024-02-26T04:16:04;13.65;;;11.02;;
11962;SDS011;62678;52.130;5.584;2024-02-26T04:18:31;14.00;;;11.15;;
11962;SDS011;62678;52.130;5.584;2024-02-26T04:21:00;13.15;;;10.60;;
11962;SDS011;62678;52.130;5.584;2024-02-26T04:23:27;13.20;;;10.63;;
11962;SDS011;62678;52.130;5.584;2024-02-26T04:25:54;14.85;;;11.35;;
11962;SDS011;62678;52.130;5.584;2024-02-26T04:28:21;12.98;;;10.60;;
11962;SDS011;62678;52.130;5.584;2024-02-26T04:30:50;12.82;;;10.70;;
11962;SDS011;62678;52.130;5.584;2024-02-26T04:33:17;13.25;;;10.50;;
11962;SDS011;62678;52.130;5.584;2024-02-26T04:35:44;16.80;;;11.20;;
11962;SDS011;62678;52.130;5.584;2024-02-26T04:38:13;14.32;;;10.75;;
11962;SDS011;62678;52.130;5.584;2024-02-26T04:40:40;12.55;;;10.80;;
11962;SDS011;62678;52.130;5.584;2024-02-26T04:43:07;15.77;;;10.82;;
11962;SDS011;62678;52.130;5.584;2024-02-26T04:45:34;12.95;;;10.68;;
11962;SDS011;62678;52.130;5.584;2024-02-26T04:48:01;11.85;;;10.43;;
11962;SDS011;62678;52.130;5.584;2024-02-26T04:50:28;14.23;;;10.25;;
11962;SDS011;62678;52.130;5.584;2024-02-26T04:52:56;11.93;;;10.18;;
11962;SDS011;62678;52.130;5.584;2024-02-26T04:55:24;12.10;;;10.48;;
11962;SDS011;62678;52.130;5.584;2024-02-26T04:57:51;14.10;;;10.65;;
11962;SDS011;62678;52.130;5.584;2024-02-26T05:00:18;13.15;;;10.45;;
11962;SDS011;62678;52.130;5.584;2024-02-26T05:02:45;15.10;;;11.00;;
11962;SDS011;62678;52.130;5.584;2024-02-26T05:05:12;13.20;;;10.88;;
11962;SDS011;62678;52.130;5.584;2024-02-26T05:07:40;12.23;;;10.50;;
11962;SDS011;62678;52.130;5.584;2024-02-26T05:10:08;14.85;;;10.60;;
11962;SDS011;62678;52.130;5.584;2024-02-26T05:12:37;14.05;;;10.98;;
11962;SDS011;62678;52.130;5.584;2024-02-26T05:15:04;18.48;;;10.73;;
11962;SDS011;62678;52.130;5.584;2024-02-26T05:17:31;13.48;;;10.63;;
11962;SDS011;62678;52.130;5.584;2024-02-26T05:19:58;12.73;;;10.50;;
11962;SDS011;62678;52.130;5.584;2024-02-26T05:22:26;14.18;;;11.25;;
11962;SDS011;62678;52.130;5.584;2024-02-26T05:24:53;13.68;;;11.15;;
11962;SDS011;62678;52.130;5.584;2024-02-26T05:27:20;14.38;;;11.98;;
11962;SDS011;62678;52.130;5.584;2024-02-26T05:29:48;13.18;;;11.27;;
11962;SDS011;62678;52.130;5.584;2024-02-26T05:32:16;12.98;;;10.68;;
11962;SDS011;62678;52.130;5.584;2024-02-26T05:34:44;15.40;;;11.40;;
11962;SDS011;62678;52.130;5.584;2024-02-26T05:37:11;15.20;;;11.15;;
11962;SDS011;62678;52.130;5.584;2024-02-26T05:39:38;16.70;;;11.23;;
11962;SDS011;62678;52.130;5.584;2024-02-26T05:42:05;14.02;;;11.07;;
11962;SDS011;62678;52.130;5.584;2024-02-26T05:44:34;16.67;;;11.98;;
11962;SDS011;62678;52.130;5.584;2024-02-26T05:47:02;15.40;;;11.98;;
11962;SDS011;62678;52.130;5.584;2024-02-26T05:49:29;14.60;;;11.63;;
11962;SDS011;62678;52.130;5.584;2024-02-26T05:51:57;16.42;;;12.10;;
11962;SDS011;62678;52.130;5.584;2024-02-26T05:54:24;15.90;;;12.40;;
11962;SDS011;62678;52.130;5.584;2024-02-26T05:56:51;18.40;;;12.65;;
11962;SDS011;62678;52.130;5.584;2024-02-26T05:59:18;14.32;;;11.88;;
11962;SDS011;62678;52.130;5.584;2024-02-26T06:01:45;15.93;;;12.65;;
11962;SDS011;62678;52.130;5.584;2024-02-26T06:04:14;17.27;;;13.00;;
11962;SDS011;62678;52.130;5.584;2024-02-26T06:06:42;18.27;;;12.95;;
11962;SDS011;62678;52.130;5.584;2024-02-26T06:09:09;16.90;;;13.25;;
11962;SDS011;62678;52.130;5.584;2024-02-26T06:11:36;18.20;;;13.27;;
11962;SDS011;62678;52.130;5.584;2024-02-26T06:14:03;18.20;;;12.73;;
11962;SDS011;62678;52.130;5.584;2024-02-26T06:16:31;18.15;;;13.63;;
11962;SDS011;62678;52.130;5.584;2024-02-26T06:18:58;17.67;;;12.77;;
11962;SDS011;62678;52.130;5.584;2024-02-26T06:21:27;18.17;;;13.70;;
11962;SDS011;62678;52.130;5.584;2024-02-26T06:23:54;17.85;;;13.57;;
11962;SDS011;62678;52.130;5.584;2024-02-26T06:26:21;19.85;;;14.43;;
11962;SDS011;62678;52.130;5.584;2024-02-26T06:28:48;18.27;;;13.35;;
11962;SDS011;62678;52.130;5.584;2024-02-26T06:31:17;22.55;;;14.07;;
11962;SDS011;62678;52.130;5.584;2024-02-26T06:33:44;20.30;;;14.88;;
11962;SDS011;62678;52.130;5.584;2024-02-26T06:36:11;22.55;;;14.90;;
11962;SDS011;62678;52.130;5.584;2024-02-26T06:38:40;21.10;;;14.98;;
11962;SDS011;62678;52.130;5.584;2024-02-26T06:41:07;21.58;;;14.85;;
11962;SDS011;62678;52.130;5.584;2024-02-26T06:43:34;22.77;;;15.02;;
11962;SDS011;62678;52.130;5.584;2024-02-26T06:46:01;21.23;;;15.23;;
11962;SDS011;62678;52.130;5.584;2024-02-26T06:48:28;22.02;;;15.32;;
11962;SDS011;62678;52.130;5.584;2024-02-26T06:50:55;22.67;;;15.52;;
11962;SDS011;62678;52.130;5.584;2024-02-26T06:53:22;24.85;;;15.55;;
11962;SDS011;62678;52.130;5.584;2024-02-26T06:55:50;27.48;;;15.75;;
11962;SDS011;62678;52.130;5.584;2024-02-26T06:58:18;25.00;;;16.50;;
11962;SDS011;62678;52.130;5.584;2024-02-26T07:00:45;23.25;;;15.82;;
11962;SDS011;62678;52.130;5.584;2024-02-26T07:03:12;23.65;;;15.90;;
11962;SDS011;62678;52.130;5.584;2024-02-26T07:05:40;28.45;;;17.23;;
11962;SDS011;62678;52.130;5.584;2024-02-26T07:08:07;24.90;;;16.90;;
11962;SDS011;62678;52.130;5.584;2024-02-26T07:10:34;25.50;;;17.08;;
11962;SDS011;62678;52.130;5.584;2024-02-26T07:13:02;27.42;;;18.05;;
11962;SDS011;62678;52.130;5.584;2024-02-26T07:15:30;29.27;;;18.63;;
11962;SDS011;62678;52.130;5.584;2024-02-26T07:17:57;30.38;;;18.75;;
11962;SDS011;62678;52.130;5.584;2024-02-26T07:20:28;28.27;;;18.85;;
11962;SDS011;62678;52.130;5.584;2024-02-26T07:22:55;31.35;;;19.27;;
11962;SDS011;62678;52.130;5.584;2024-02-26T07:25:22;30.83;;;19.35;;
11962;SDS011;62678;52.130;5.584;2024-02-26T07:27:49;32.47;;;20.50;;
11962;SDS011;62678;52.130;5.584;2024-02-26T07:30:18;34.50;;;20.90;;
11962;SDS011;62678;52.130;5.584;2024-02-26T07:32:45;31.60;;;20.50;;
11962;SDS011;62678;52.130;5.584;2024-02-26T07:35:12;32.88;;;20.42;;
11962;SDS011;62678;52.130;5.584;2024-02-26T07:37:39;33.45;;;21.30;;
11962;SDS011;62678;52.130;5.584;2024-02-26T07:40:07;34.72;;;21.70;;
11962;SDS011;62678;52.130;5.584;2024-02-26T07:42:34;34.53;;;21.48;;
11962;SDS011;62678;52.130;5.584;2024-02-26T07:45:01;32.55;;;20.63;;
11962;SDS011;62678;52.130;5.584;2024-02-26T07:47:33;32.47;;;21.50;;
11962;SDS011;62678;52.130;5.584;2024-02-26T07:50:00;36.03;;;21.20;;
11962;SDS011;62678;52.130;5.584;2024-02-26T07:52:28;36.65;;;21.98;;
11962;SDS011;62678;52.130;5.584;2024-02-26T07:54:55;32.30;;;21.38;;
11962;SDS011;62678;52.130;5.584;2024-02-26T07:57:22;34.70;;;21.30;;
11962;SDS011;62678;52.130;5.584;2024-02-26T07:59:49;37.55;;;22.65;;
11962;SDS011;62678;52.130;5.584;2024-02-26T08:02:16;38.50;;;23.23;;
11962;SDS011;62678;52.130;5.584;2024-02-26T08:04:44;34.33;;;22.48;;
11962;SDS011;62678;52.130;5.584;2024-02-26T08:07:12;38.33;;;22.27;;
11962;SDS011;62678;52.130;5.584;2024-02-26T08:09:39;35.38;;;22.08;;
11962;SDS011;62678;52.130;5.584;2024-02-26T08:12:06;34.40;;;22.02;;
11962;SDS011;62678;52.130;5.584;2024-02-26T08:14:33;32.85;;;21.42;;
11962;SDS011;62678;52.130;5.584;2024-02-26T08:17:00;33.67;;;20.75;;
11962;SDS011;62678;52.130;5.584;2024-02-26T08:19:27;32.60;;;21.17;;
11962;SDS011;62678;52.130;5.584;2024-02-26T08:21:56;40.95;;;25.77;;
11962;SDS011;62678;52.130;5.584;2024-02-26T08:24:23;30.27;;;20.52;;
11962;SDS011;62678;52.130;5.584;2024-02-26T08:26:50;30.38;;;19.95;;
11962;SDS011;62678;52.130;5.584;2024-02-26T08:29:17;28.25;;;18.67;;
11962;SDS011;62678;52.130;5.584;2024-02-26T08:31:44;27.67;;;19.35;;
11962;SDS011;62678;52.130;5.584;2024-02-26T08:34:11;25.98;;;17.67;;
11962;SDS011;62678;52.130;5.584;2024-02-26T08:36:38;26.67;;;18.25;;
11962;SDS011;62678;52.130;5.584;2024-02-26T08:41:42;25.25;;;16.80;;
11962;SDS011;62678;52.130;5.584;2024-02-26T08:44:10;22.58;;;16.05;;
11962;SDS011;62678;52.130;5.584;2024-02-26T08:46:37;21.27;;;15.52;;
11962;SDS011;62678;52.130;5.584;2024-02-26T08:49:04;20.27;;;14.40;;
11962;SDS011;62678;52.130;5.584;2024-02-26T08:51:31;18.63;;;14.52;;
11962;SDS011;62678;52.130;5.584;2024-02-26T08:53:58;19.05;;;14.55;;
11962;SDS011;62678;52.130;5.584;2024-02-26T08:56:25;18.70;;;13.75;;
11962;SDS011;62678;52.130;5.584;2024-02-26T08:58:53;18.30;;;13.93;;
11962;SDS011;62678;52.130;5.584;2024-02-26T09:01:22;18.55;;;13.23;;
11962;SDS011;62678;52.130;5.584;2024-02-26T09:03:48;18.23;;;13.70;;
11962;SDS011;62678;52.130;5.584;2024-02-26T09:06:16;17.17;;;13.70;;
11962;SDS011;62678;52.130;5.584;2024-02-26T09:08:43;15.68;;;12.27;;
11962;SDS011;62678;52.130;5.584;2024-02-26T09:11:10;15.38;;;12.68;;
11962;SDS011;62678;52.130;5.584;2024-02-26T09:13:37;17.38;;;12.13;;
11962;SDS011;62678;52.130;5.584;2024-02-26T09:16:06;15.30;;;12.40;;
11962;SDS011;62678;52.130;5.584;2024-02-26T09:18:33;17.80;;;11.98;;
11962;SDS011;62678;52.130;5.584;2024-02-26T09:21:03;18.63;;;12.10;;
11962;SDS011;62678;52.130;5.584;2024-02-26T09:23:30;14.75;;;10.90;;
11962;SDS011;62678;52.130;5.584;2024-02-26T09:25:57;15.00;;;11.90;;
11962;SDS011;62678;52.130;5.584;2024-02-26T09:28:24;15.07;;;11.27;;
11962;SDS011;62678;52.130;5.584;2024-02-26T09:30:51;16.38;;;11.52;;
11962;SDS011;62678;52.130;5.584;2024-02-26T09:33:20;12.80;;;9.85;;
11962;SDS011;62678;52.130;5.584;2024-02-26T09:35:48;13.60;;;10.93;;
11962;SDS011;62678;52.130;5.584;2024-02-26T09:38:15;14.15;;;10.18;;
11962;SDS011;62678;52.130;5.584;2024-02-26T09:40:42;14.13;;;10.48;;
11962;SDS011;62678;52.130;5.584;2024-02-26T09:43:09;15.77;;;10.75;;
11962;SDS011;62678;52.130;5.584;2024-02-26T09:45:41;13.10;;;9.90;;
11962;SDS011;62678;52.130;5.584;2024-02-26T09:48:09;13.60;;;10.30;;
11962;SDS011;62678;52.130;5.584;2024-02-26T09:50:39;12.32;;;10.10;;
11962;SDS011;62678;52.130;5.584;2024-02-26T09:53:07;13.85;;;9.98;;
11962;SDS011;62678;52.130;5.584;2024-02-26T09:55:36;14.38;;;9.88;;
11962;SDS011;62678;52.130;5.584;2024-02-26T09:58:03;12.05;;;9.10;;
11962;SDS011;62678;52.130;5.584;2024-02-26T10:00:32;14.07;;;9.27;;
11962;SDS011;62678;52.130;5.584;2024-02-26T10:02:59;11.85;;;9.63;;
11962;SDS011;62678;52.130;5.584;2024-02-26T10:05:29;12.93;;;9.32;;
11962;SDS011;62678;52.130;5.584;2024-02-26T10:07:58;12.75;;;9.52;;
11962;SDS011;62678;52.130;5.584;2024-02-26T10:10:26;12.80;;;10.23;;
11962;SDS011;62678;52.130;5.584;2024-02-26T10:12:54;15.20;;;10.40;;
11962;SDS011;62678;52.130;5.584;2024-02-26T10:15:21;12.05;;;9.45;;
11962;SDS011;62678;52.130;5.584;2024-02-26T10:17:48;13.98;;;9.93;;
11962;SDS011;62678;52.130;5.584;2024-02-26T10:20:16;11.55;;;9.77;;
11962;SDS011;62678;52.130;5.584;2024-02-26T10:22:43;13.05;;;9.25;;
11962;SDS011;62678;52.130;5.584;2024-02-26T10:25:12;11.48;;;9.55;;
11962;SDS011;62678;52.130;5.584;2024-02-26T10:27:40;11.77;;;9.45;;
11962;SDS011;62678;52.130;5.584;2024-02-26T10:30:15;12.07;;;9.32;;
11962;SDS011;62678;52.130;5.584;2024-02-26T10:32:42;12.52;;;9.35;;
11962;SDS011;62678;52.130;5.584;2024-02-26T10:35:09;10.55;;;8.85;;
11962;SDS011;62678;52.130;5.584;2024-02-26T10:37:36;13.35;;;10.13;;
11962;SDS011;62678;52.130;5.584;2024-02-26T10:40:04;11.18;;;8.85;;
11962;SDS011;62678;52.130;5.584;2024-02-26T10:42:33;11.00;;;8.75;;
11962;SDS011;62678;52.130;5.584;2024-02-26T10:45:00;12.95;;;8.90;;
11962;SDS011;62678;52.130;5.584;2024-02-26T10:47:27;12.75;;;8.93;;
11962;SDS011;62678;52.130;5.584;2024-02-26T10:49:55;10.30;;;8.43;;
11962;SDS011;62678;52.130;5.584;2024-02-26T10:52:22;11.02;;;8.43;;
11962;SDS011;62678;52.130;5.584;2024-02-26T10:54:50;10.63;;;7.85;;
11962;SDS011;62678;52.130;5.584;2024-02-26T10:57:20;10.95;;;8.57;;
11962;SDS011;62678;52.130;5.584;2024-02-26T10:59:49;8.52;;;7.07;;
11962;SDS011;62678;52.130;5.584;2024-02-26T11:02:18;10.50;;;8.73;;
11962;SDS011;62678;52.130;5.584;2024-02-26T11:04:45;12.77;;;8.40;;
11962;SDS011;62678;52.130;5.584;2024-02-26T11:07:15;10.85;;;8.27;;
11962;SDS011;62678;52.130;5.584;2024-02-26T11:09:43;9.60;;;7.68;;
11962;SDS011;62678;52.130;5.584;2024-02-26T11:12:12;10.35;;;8.63;;
11962;SDS011;62678;52.130;5.584;2024-02-26T11:14:40;10.57;;;8.00;;
11962;SDS011;62678;52.130;5.584;2024-02-26T11:17:11;10.75;;;8.38;;
11962;SDS011;62678;52.130;5.584;2024-02-26T11:19:38;9.82;;;7.75;;
11962;SDS011;62678;52.130;5.584;2024-02-26T11:22:07;10.07;;;7.65;;
11962;SDS011;62678;52.130;5.584;2024-02-26T11:24:34;11.02;;;8.40;;
11962;SDS011;62678;52.130;5.584;2024-02-26T11:27:06;10.60;;;8.40;;
11962;SDS011;62678;52.130;5.584;2024-02-26T11:29:37;10.93;;;8.98;;
11962;SDS011;62678;52.130;5.584;2024-02-26T11:32:05;11.68;;;8.10;;
11962;SDS011;62678;52.130;5.584;2024-02-26T11:34:34;10.60;;;8.23;;
11962;SDS011;62678;52.130;5.584;2024-02-26T11:37:08;9.73;;;7.97;;
11962;SDS011;62678;52.130;5.584;2024-02-26T11:39:36;10.18;;;8.15;;
11962;SDS011;62678;52.130;5.584;2024-02-26T11:42:07;11.48;;;8.65;;
11962;SDS011;62678;52.130;5.584;2024-02-26T11:44:34;11.55;;;8.88;;
11962;SDS011;62678;52.130;5.584;2024-02-26T11:47:09;12.60;;;9.50;;
11962;SDS011;62678;52.130;5.584;2024-02-26T11:49:37;12.05;;;9.45;;
11962;SDS011;62678;52.130;5.584;2024-02-26T11:52:05;11.32;;;8.90;;
11962;SDS011;62678;52.130;5.584;2024-02-26T11:54:38;10.63;;;8.55;;
11962;SDS011;62678;52.130;5.584;2024-02-26T11:57:19;11.27;;;8.82;;
11962;SDS011;62678;52.130;5.584;2024-02-26T11:59:46;11.98;;;9.00;;
11962;SDS011;62678;52.130;5.584;2024-02-26T12:04:57;11.45;;;8.93;;
11962;SDS011;62678;52.130;5.584;2024-02-26T12:07:25;12.80;;;9.20;;
11962;SDS011;62678;52.130;5.584;2024-02-26T12:09:52;12.80;;;8.85;;
11962;SDS011;62678;52.130;5.584;2024-02-26T12:12:19;10.50;;;8.52;;
11962;SDS011;62678;52.130;5.584;2024-02-26T12:14:52;11.35;;;8.77;;
11962;SDS011;62678;52.130;5.584;2024-02-26T12:17:19;12.73;;;8.68;;
11962;SDS011;62678;52.130;5.584;2024-02-26T12:19:46;10.25;;;8.02;;
11962;SDS011;62678;52.130;5.584;2024-02-26T12:22:15;10.25;;;8.63;;
11962;SDS011;62678;52.130;5.584;2024-02-26T12:24:42;11.00;;;8.77;;
11962;SDS011;62678;52.130;5.584;2024-02-26T12:27:09;9.95;;;7.90;;
11962;SDS011;62678;52.130;5.584;2024-02-26T12:29:36;12.20;;;9.32;;
11962;SDS011;62678;52.130;5.584;2024-02-26T12:32:04;10.20;;;8.43;;
11962;SDS011;62678;52.130;5.584;2024-02-26T12:34:31;10.57;;;8.32;;
11962;SDS011;62678;52.130;5.584;2024-02-26T12:36:59;11.48;;;8.32;;
11962;SDS011;62678;52.130;5.584;2024-02-26T12:39:29;10.30;;;7.97;;
11962;SDS011;62678;52.130;5.584;2024-02-26T12:41:57;12.45;;;9.30;;
11962;SDS011;62678;52.130;5.584;2024-02-26T12:44:24;10.90;;;8.48;;
11962;SDS011;62678;52.130;5.584;2024-02-26T12:46:59;10.60;;;8.75;;
11962;SDS011;62678;52.130;5.584;2024-02-26T12:49:27;11.95;;;8.95;;
11962;SDS011;62678;52.130;5.584;2024-02-26T12:51:54;11.27;;;8.00;;
11962;SDS011;62678;52.130;5.584;2024-02-26T12:54:26;10.32;;;8.38;;
11962;SDS011;62678;52.130;5.584;2024-02-26T12:56:54;10.35;;;8.65;;
11962;SDS011;62678;52.130;5.584;2024-02-26T12:59:22;12.07;;;8.52;;
11962;SDS011;62678;52.130;5.584;2024-02-26T13:01:49;10.77;;;8.20;;
11962;SDS011;62678;52.130;5.584;2024-02-26T13:04:16;12.05;;;8.80;;
11962;SDS011;62678;52.130;5.584;2024-02-26T13:06:43;10.13;;;8.68;;
11962;SDS011;62678;52.130;5.584;2024-02-26T13:09:12;11.00;;;8.27;;
11962;SDS011;62678;52.130;5.584;2024-02-26T13:11:39;10.45;;;8.27;;
11962;SDS011;62678;52.130;5.584;2024-02-26T13:14:08;11.05;;;7.85;;
11962;SDS011;62678;52.130;5.584;2024-02-26T13:16:45;8.50;;;7.30;;
11962;SDS011;62678;52.130;5.584;2024-02-26T13:19:21;9.27;;;7.57;;
11962;SDS011;62678;52.130;5.584;2024-02-26T13:21:48;10.48;;;8.25;;
11962;SDS011;62678;52.130;5.584;2024-02-26T13:24:15;10.38;;;8.32;;
11962;SDS011;62678;52.130;5.584;2024-02-26T13:26:43;8.73;;;7.60;;
11962;SDS011;62678;52.130;5.584;2024-02-26T13:29:17;9.85;;;7.57;;
11962;SDS011;62678;52.130;5.584;2024-02-26T13:31:45;10.52;;;8.07;;
11962;SDS011;62678;52.130;5.584;2024-02-26T13:34:22;10.38;;;8.50;;
11962;SDS011;62678;52.130;5.584;2024-02-26T13:36:50;11.25;;;8.70;;
11962;SDS011;62678;52.130;5.584;2024-02-26T13:39:21;9.70;;;7.82;;
11962;SDS011;62678;52.130;5.584;2024-02-26T13:41:47;9.82;;;8.05;;
11962;SDS011;62678;52.130;5.584;2024-02-26T13:44:15;10.00;;;7.82;;
11962;SDS011;62678;52.130;5.584;2024-02-26T13:46:43;9.65;;;7.85;;
11962;SDS011;62678;52.130;5.584;2024-02-26T13:49:10;9.55;;;7.53;;
11962;SDS011;62678;52.130;5.584;2024-02-26T13:51:37;9.20;;;7.35;;
11962;SDS011;62678;52.130;5.584;2024-02-26T13:54:04;10.02;;;7.72;;
11962;SDS011;62678;52.130;5.584;2024-02-26T13:56:32;9.18;;;6.82;;
11962;SDS011;62678;52.130;5.584;2024-02-26T13:58:59;9.93;;;7.85;;
11962;SDS011;62678;52.130;5.584;2024-02-26T14:01:26;8.77;;;7.30;;
11962;SDS011;62678;52.130;5.584;2024-02-26T14:03:55;9.40;;;7.65;;
11962;SDS011;62678;52.130;5.584;2024-02-26T14:06:22;9.85;;;7.68;;
11962;SDS011;62678;52.130;5.584;2024-02-26T14:08:49;8.27;;;7.25;;
11962;SDS011;62678;52.130;5.584;2024-02-26T14:11:16;9.98;;;7.50;;
11962;SDS011;62678;52.130;5.584;2024-02-26T14:13:44;7.72;;;6.80;;
11962;SDS011;62678;52.130;5.584;2024-02-26T14:16:12;8.75;;;7.15;;
11962;SDS011;62678;52.130;5.584;2024-02-26T14:18:39;8.05;;;7.00;;
11962;SDS011;62678;52.130;5.584;2024-02-26T14:21:10;10.05;;;6.93;;
11962;SDS011;62678;52.130;5.584;2024-02-26T14:23:38;7.75;;;6.18;;
11962;SDS011;62678;52.130;5.584;2024-02-26T14:26:07;7.47;;;6.10;;
11962;SDS011;62678;52.130;5.584;2024-02-26T14:28:34;7.45;;;5.97;;
11962;SDS011;62678;52.130;5.584;2024-02-26T14:31:01;7.20;;;6.15;;
11962;SDS011;62678;52.130;5.584;2024-02-26T14:33:30;8.00;;;6.35;;
11962;SDS011;62678;52.130;5.584;2024-02-26T14:35:57;6.28;;;5.30;;
11962;SDS011;62678;52.130;5.584;2024-02-26T14:38:26;7.40;;;5.57;;